Time;durP1;ratioP1;P1;durP2;ratioP2;P2;SDS_P1;SDS_P2;PMS_P1;PMS_P2;Temp;Humidity;BMP_temperature;BMP_pressure;BME280_temperature;BME280_humidity;BME280_pressure;Samples;Min_cycle;Max_cycle;Signal;HPM_P1;HPM_P2
2023/02/08 00:00:44;;;;;;;16.17;7.85;;;;;;;;;;5046628;28;20490;-73
2023/02/08 00:03:10;;;;;;;18.65;8.15;;;;;;;;;;5053741;28;20456;-74
2023/02/08 00:05:35;;;;;;;14.30;7.55;;;;;;;;;;5045760;28;20475;-73
2023/02/08 00:08:00;;;;;;;16.30;9.88;;;;;;;;;;5047124;28;20369;-69
2023/02/08 00:10:26;;;;;;;13.10;7.95;;;;;;;;;;5051619;28;20021;-72
2023/02/08 00:12:51;;;;;;;20.08;8.48;;;;;;;;;;5048657;28;20062;-68
2023/02/08 00:15:17;;;;;;;15.53;7.43;;;;;;;;;;5043585;28;20392;-70
2023/02/08 00:17:42;;;;;;;15.77;8.48;;;;;;;;;;5028489;28;20840;-72
2023/02/08 00:20:07;;;;;;;20.48;8.93;;;;;;;;;;5041609;28;20021;-69
2023/02/08 00:22:33;;;;;;;15.77;8.40;;;;;;;;;;5048785;28;20108;-68
2023/02/08 00:24:58;;;;;;;20.80;9.07;;;;;;;;;;5047647;28;20112;-69
2023/02/08 00:27:23;;;;;;;17.77;8.10;;;;;;;;;;5043198;28;20274;-72
2023/02/08 00:29:48;;;;;;;17.45;10.27;;;;;;;;;;5049661;28;20306;-74
2023/02/08 00:32:13;;;;;;;16.87;7.50;;;;;;;;;;5045856;28;20117;-71
2023/02/08 00:34:39;;;;;;;17.13;8.70;;;;;;;;;;5050858;28;20784;-72
2023/02/08 00:37:05;;;;;;;15.70;7.63;;;;;;;;;;5045246;28;20328;-73
2023/02/08 00:39:30;;;;;;;13.38;7.18;;;;;;;;;;5041211;28;20036;-72
2023/02/08 00:41:56;;;;;;;16.08;8.45;;;;;;;;;;5050740;28;20112;-73
2023/02/08 00:44:21;;;;;;;14.65;8.00;;;;;;;;;;5053023;28;20017;-73
2023/02/08 00:46:46;;;;;;;17.07;8.33;;;;;;;;;;5044348;28;20021;-71
2023/02/08 00:49:11;;;;;;;15.27;9.07;;;;;;;;;;5039990;28;20271;-71
2023/02/08 00:51:36;;;;;;;20.33;9.35;;;;;;;;;;5053689;28;20120;-73
2023/02/08 00:54:02;;;;;;;15.35;9.32;;;;;;;;;;5046190;28;20079;-72
2023/02/08 00:56:27;;;;;;;16.37;8.27;;;;;;;;;;5044181;28;20086;-73
2023/02/08 00:58:52;;;;;;;18.05;8.63;;;;;;;;;;5043282;28;20349;-71
2023/02/08 01:01:17;;;;;;;16.37;7.43;;;;;;;;;;5053345;28;20021;-68
2023/02/08 01:03:42;;;;;;;17.48;9.45;;;;;;;;;;5048024;28;20321;-70
2023/02/08 01:06:09;;;;;;;18.90;9.43;;;;;;;;;;5040774;28;20009;-68
2023/02/08 01:08:35;;;;;;;20.30;9.25;;;;;;;;;;5047583;28;20315;-69
2023/02/08 01:11:01;;;;;;;19.75;9.23;;;;;;;;;;5032967;28;20036;-70
2023/02/08 01:13:26;;;;;;;15.60;7.85;;;;;;;;;;5048812;28;20039;-70
2023/02/08 01:15:51;;;;;;;18.40;8.27;;;;;;;;;;5045692;28;20100;-71
2023/02/08 01:18:16;;;;;;;17.87;8.63;;;;;;;;;;5048706;28;20350;-68
2023/02/08 01:20:42;;;;;;;15.93;8.57;;;;;;;;;;5031316;28;20374;-75
2023/02/08 01:23:07;;;;;;;17.88;8.90;;;;;;;;;;5047467;28;20346;-74
2023/02/08 01:25:32;;;;;;;16.43;8.83;;;;;;;;;;5054811;28;20050;-74
2023/02/08 01:27:57;;;;;;;15.17;8.50;;;;;;;;;;5056014;28;20307;-74
2023/02/08 01:30:23;;;;;;;17.88;8.65;;;;;;;;;;5047610;28;20459;-76
2023/02/08 01:32:48;;;;;;;16.15;9.35;;;;;;;;;;5044047;28;20454;-75
2023/02/08 01:35:13;;;;;;;11.13;6.72;;;;;;;;;;5051526;28;20017;-75
2023/02/08 01:37:38;;;;;;;17.23;7.77;;;;;;;;;;5046938;28;20033;-70
2023/02/08 01:40:04;;;;;;;14.33;8.40;;;;;;;;;;5038478;28;20272;-72
2023/02/08 01:42:29;;;;;;;17.17;8.80;;;;;;;;;;5044624;28;20405;-70
2023/02/08 01:45:23;;;;;;;13.98;8.13;;;;;;;;;;5050362;28;20033;-69
2023/02/08 01:47:51;;;;;;;20.08;9.38;;;;;;;;;;5009831;28;20029;-69
2023/02/08 01:50:17;;;;;;;19.23;8.90;;;;;;;;;;5048057;28;20031;-69
2023/02/08 01:52:44;;;;;;;18.70;8.82;;;;;;;;;;5045340;28;20036;-70
2023/02/08 01:55:20;;;;;;;16.15;8.50;;;;;;;;;;5044928;28;20056;-69
2023/02/08 01:57:47;;;;;;;15.80;8.05;;;;;;;;;;5038425;28;20037;-72
2023/02/08 02:00:14;;;;;;;14.10;7.80;;;;;;;;;;5039083;28;20057;-72
2023/02/08 02:02:40;;;;;;;14.77;7.82;;;;;;;;;;5041900;28;20531;-72
2023/02/08 02:05:06;;;;;;;17.27;8.25;;;;;;;;;;5039476;28;20029;-72
2023/02/08 02:07:31;;;;;;;13.25;7.78;;;;;;;;;;5053508;28;20473;-71
2023/02/08 02:10:06;;;;;;;13.75;7.45;;;;;;;;;;5048238;28;20103;-70
2023/02/08 02:12:32;;;;;;;19.45;7.68;;;;;;;;;;5043261;28;20020;-70
2023/02/08 02:14:58;;;;;;;15.63;7.75;;;;;;;;;;5054216;28;20363;-70
2023/02/08 02:17:23;;;;;;;18.80;8.30;;;;;;;;;;5045327;28;20027;-74
2023/02/08 02:20:09;;;;;;;15.65;7.38;;;;;;;;;;5047263;28;20028;-73
2023/02/08 02:22:53;;;;;;;13.20;7.20;;;;;;;;;;5036908;28;20507;-74
2023/02/08 02:25:34;;;;;;;13.00;8.10;;;;;;;;;;5041653;28;20051;-73
2023/02/08 02:28:08;;;;;;;16.05;8.48;;;;;;;;;;5046816;28;20091;-74
2023/02/08 02:30:39;;;;;;;14.13;7.47;;;;;;;;;;5041639;28;20484;-73
2023/02/08 02:33:11;;;;;;;15.48;7.97;;;;;;;;;;5043679;28;20050;-74
2023/02/08 02:35:42;;;;;;;16.05;8.60;;;;;;;;;;5048530;28;20052;-70
2023/02/08 02:38:11;;;;;;;16.58;8.65;;;;;;;;;;5039815;28;20033;-70
2023/02/08 02:40:39;;;;;;;22.30;8.53;;;;;;;;;;5038842;28;20448;-70
2023/02/08 02:46:10;;;;;;;16.50;7.40;;;;;;;;;;5039289;28;20112;-70
2023/02/08 02:48:37;;;;;;;16.05;7.78;;;;;;;;;;5049663;28;20032;-70
2023/02/08 02:51:13;;;;;;;14.13;7.53;;;;;;;;;;5046401;28;20024;-80
2023/02/08 02:53:56;;;;;;;14.32;8.23;;;;;;;;;;5040355;28;20029;-71
2023/02/08 02:56:23;;;;;;;14.55;8.15;;;;;;;;;;5043242;28;20037;-72
2023/02/08 02:58:49;;;;;;;15.45;7.50;;;;;;;;;;5046392;28;20060;-72
2023/02/08 03:01:20;;;;;;;15.55;8.45;;;;;;;;;;5040056;28;20052;-72
2023/02/08 03:03:45;;;;;;;14.65;7.45;;;;;;;;;;5040370;28;20036;-72
2023/02/08 03:06:13;;;;;;;15.37;7.43;;;;;;;;;;5036122;28;20385;-72
2023/02/08 03:08:50;;;;;;;16.00;7.95;;;;;;;;;;5048810;28;20276;-72
2023/02/08 03:11:24;;;;;;;14.52;7.45;;;;;;;;;;5048502;28;20087;-73
2023/02/08 03:13:49;;;;;;;15.35;7.75;;;;;;;;;;5048679;28;20032;-74
2023/02/08 03:16:17;;;;;;;15.53;7.83;;;;;;;;;;5042015;28;20471;-73
2023/02/08 03:19:01;;;;;;;14.50;7.25;;;;;;;;;;5049035;28;20155;-73
2023/02/08 03:21:26;;;;;;;13.70;6.93;;;;;;;;;;5042066;28;20032;-74
2023/02/08 03:23:51;;;;;;;16.00;7.90;;;;;;;;;;5044969;28;20490;-75
2023/02/08 03:26:19;;;;;;;15.10;7.07;;;;;;;;;;5041068;28;20033;-73
2023/02/08 03:29:08;;;;;;;16.55;8.52;;;;;;;;;;5031636;28;20224;-74
2023/02/08 03:31:36;;;;;;;19.83;8.13;;;;;;;;;;5030944;28;20033;-76
2023/02/08 03:34:04;;;;;;;17.60;7.40;;;;;;;;;;5044710;28;20017;-80
2023/02/08 03:36:31;;;;;;;14.60;7.75;;;;;;;;;;5047046;28;20094;-79
2023/02/08 03:38:58;;;;;;;15.93;7.93;;;;;;;;;;5041275;28;20036;-79
2023/02/08 03:41:27;;;;;;;14.85;7.57;;;;;;;;;;5043779;28;20096;-79
2023/02/08 03:43:58;;;;;;;13.82;7.60;;;;;;;;;;5029249;28;20049;-79
2023/02/08 03:46:26;;;;;;;15.70;7.43;;;;;;;;;;5039308;28;20025;-66
2023/02/08 03:49:00;;;;;;;14.57;7.97;;;;;;;;;;5049080;28;20116;-74
2023/02/08 03:51:27;;;;;;;14.05;7.25;;;;;;;;;;5042868;28;20458;-74
2023/02/08 03:53:52;;;;;;;13.25;8.07;;;;;;;;;;5039095;28;20203;-73
2023/02/08 03:56:25;;;;;;;13.52;7.30;;;;;;;;;;5049758;28;20021;-74
2023/02/08 03:58:54;;;;;;;15.25;6.97;;;;;;;;;;5046783;28;20059;-74
2023/02/08 04:01:25;;;;;;;16.98;7.22;;;;;;;;;;5042499;28;20017;-76
2023/02/08 04:03:52;;;;;;;15.77;7.78;;;;;;;;;;5039687;28;20030;-73
2023/02/08 04:08:54;;;;;;;17.60;8.52;;;;;;;;;;5006466;28;20483;-71
2023/02/08 04:11:20;;;;;;;14.52;8.50;;;;;;;;;;5014336;28;20026;-72
2023/02/08 04:13:45;;;;;;;14.20;7.00;;;;;;;;;;5011531;28;20492;-71
2023/02/08 04:16:11;;;;;;;15.43;8.02;;;;;;;;;;4997297;28;20014;-73
2023/02/08 04:18:36;;;;;;;14.15;7.20;;;;;;;;;;5009421;28;20496;-70
2023/02/08 04:21:01;;;;;;;17.60;8.90;;;;;;;;;;5007715;28;20602;-72
2023/02/08 04:23:27;;;;;;;14.88;7.85;;;;;;;;;;5006330;28;20759;-67
2023/02/08 04:25:52;;;;;;;16.08;8.15;;;;;;;;;;4990688;28;20555;-73
2023/02/08 04:28:17;;;;;;;14.95;8.00;;;;;;;;;;4992083;28;20022;-76
2023/02/08 04:30:42;;;;;;;17.50;8.35;;;;;;;;;;4984603;28;20481;-74
2023/02/08 04:33:08;;;;;;;14.52;8.25;;;;;;;;;;4990769;28;20405;-72
2023/02/08 04:35:33;;;;;;;14.57;6.85;;;;;;;;;;4989489;28;20023;-72
2023/02/08 04:37:58;;;;;;;15.07;6.80;;;;;;;;;;4991093;28;20482;-73
2023/02/08 04:40:23;;;;;;;14.35;6.93;;;;;;;;;;4982742;28;20960;-75
2023/02/08 04:42:48;;;;;;;14.95;7.68;;;;;;;;;;4985030;28;20019;-71
2023/02/08 04:45:14;;;;;;;16.53;7.50;;;;;;;;;;4990992;28;20022;-75
2023/02/08 04:47:39;;;;;;;17.15;8.30;;;;;;;;;;4990406;28;20336;-79
2023/02/08 04:50:05;;;;;;;14.67;7.70;;;;;;;;;;4988056;28;20055;-74
2023/02/08 04:52:30;;;;;;;12.70;7.43;;;;;;;;;;4988474;28;20281;-77
2023/02/08 04:54:55;;;;;;;14.45;7.97;;;;;;;;;;4989215;28;20423;-75
2023/02/08 04:57:20;;;;;;;13.10;7.20;;;;;;;;;;4988515;28;20026;-75
2023/02/08 04:59:45;;;;;;;17.70;8.30;;;;;;;;;;4991594;28;20771;-82
2023/02/08 05:02:11;;;;;;;13.88;8.60;;;;;;;;;;4988617;28;20269;-76
2023/02/08 05:04:36;;;;;;;15.20;7.55;;;;;;;;;;4988349;28;20517;-76
2023/02/08 05:07:01;;;;;;;16.37;9.47;;;;;;;;;;4988357;28;20030;-78
2023/02/08 05:09:26;;;;;;;15.25;7.63;;;;;;;;;;4988742;28;20296;-76
2023/02/08 05:11:52;;;;;;;13.20;7.63;;;;;;;;;;4990715;28;20049;-75
2023/02/08 05:14:17;;;;;;;16.07;8.00;;;;;;;;;;4992332;28;20042;-75
2023/02/08 05:16:42;;;;;;;15.95;7.72;;;;;;;;;;4989412;28;20281;-71
2023/02/08 05:19:08;;;;;;;16.23;7.67;;;;;;;;;;4989316;28;20118;-70
2023/02/08 05:21:34;;;;;;;13.95;7.68;;;;;;;;;;4993474;28;20297;-72
2023/02/08 05:23:59;;;;;;;16.77;8.37;;;;;;;;;;4990751;28;20031;-73
2023/02/08 05:26:24;;;;;;;13.77;7.67;;;;;;;;;;4993794;28;20278;-74
2023/02/08 05:28:49;;;;;;;15.37;7.93;;;;;;;;;;4998582;28;20297;-71
2023/02/08 05:31:21;;;;;;;16.30;7.78;;;;;;;;;;4996014;28;20286;-73
2023/02/08 05:33:51;;;;;;;15.20;7.40;;;;;;;;;;4992469;28;20082;-74
2023/02/08 05:36:16;;;;;;;15.27;8.07;;;;;;;;;;4988398;28;20080;-70
2023/02/08 05:38:42;;;;;;;16.33;7.72;;;;;;;;;;4987377;28;20124;-72
2023/02/08 05:41:08;;;;;;;14.73;7.07;;;;;;;;;;4992073;28;20022;-71
2023/02/08 05:43:33;;;;;;;15.63;8.02;;;;;;;;;;4988272;28;20033;-71
2023/02/08 05:45:58;;;;;;;15.63;7.20;;;;;;;;;;4989427;28;20023;-71
2023/02/08 05:48:23;;;;;;;17.70;8.48;;;;;;;;;;4988003;28;20284;-72
2023/02/08 05:50:48;;;;;;;21.33;10.23;;;;;;;;;;4994118;28;20117;-71
2023/02/08 05:53:14;;;;;;;16.65;7.47;;;;;;;;;;4994037;28;20027;-71
2023/02/08 05:55:42;;;;;;;14.80;7.00;;;;;;;;;;5002446;28;20105;-70
2023/02/08 05:58:07;;;;;;;16.73;7.57;;;;;;;;;;5003280;28;20038;-73
2023/02/08 06:00:33;;;;;;;19.70;9.77;;;;;;;;;;4992220;28;20022;-73
2023/02/08 06:02:58;;;;;;;14.77;7.18;;;;;;;;;;4993181;28;20277;-74
2023/02/08 06:05:23;;;;;;;17.63;7.90;;;;;;;;;;4985310;28;20100;-74
2023/02/08 06:07:48;;;;;;;16.40;7.73;;;;;;;;;;4990107;28;20030;-73
2023/02/08 06:10:13;;;;;;;20.52;8.98;;;;;;;;;;4992463;28;20292;-74
2023/02/08 06:12:39;;;;;;;13.77;7.10;;;;;;;;;;4990985;28;20018;-70
2023/02/08 06:15:04;;;;;;;14.75;7.78;;;;;;;;;;4986820;28;20284;-73
2023/02/08 06:17:29;;;;;;;14.15;7.32;;;;;;;;;;4991768;28;20481;-70
2023/02/08 06:19:55;;;;;;;14.38;8.45;;;;;;;;;;4989123;28;20030;-70
2023/02/08 06:22:20;;;;;;;17.57;8.87;;;;;;;;;;4996064;28;20033;-69
2023/02/08 06:24:46;;;;;;;15.83;7.07;;;;;;;;;;4990027;28;20364;-69
2023/02/08 06:27:11;;;;;;;17.13;7.50;;;;;;;;;;4995388;28;20313;-69
2023/02/08 06:29:37;;;;;;;15.65;8.20;;;;;;;;;;4988599;28;20054;-69
2023/02/08 06:32:02;;;;;;;15.20;7.40;;;;;;;;;;5001502;28;20034;-71
2023/02/08 06:34:27;;;;;;;14.32;7.10;;;;;;;;;;4988443;28;20293;-80
2023/02/08 06:36:53;;;;;;;17.77;9.63;;;;;;;;;;4991655;28;20030;-77
2023/02/08 06:39:18;;;;;;;18.65;7.93;;;;;;;;;;4982286;28;20034;-80
2023/02/08 06:41:43;;;;;;;15.20;7.80;;;;;;;;;;4987720;28;20397;-75
2023/02/08 06:44:09;;;;;;;15.63;8.32;;;;;;;;;;4989059;28;20749;-76
2023/02/08 06:46:34;;;;;;;15.35;8.02;;;;;;;;;;4988755;28;20425;-73
2023/02/08 06:48:59;;;;;;;16.48;8.60;;;;;;;;;;4987546;28;20018;-76
2023/02/08 06:51:25;;;;;;;18.25;9.40;;;;;;;;;;4987262;28;20601;-71
2023/02/08 06:53:50;;;;;;;17.92;8.13;;;;;;;;;;4985835;28;20054;-76
2023/02/08 06:56:16;;;;;;;18.48;8.18;;;;;;;;;;4986135;28;20034;-76
2023/02/08 06:58:41;;;;;;;16.75;8.82;;;;;;;;;;4984684;28;20096;-75
2023/02/08 07:01:10;;;;;;;16.15;8.15;;;;;;;;;;4986869;28;20594;-76
2023/02/08 07:03:35;;;;;;;19.50;7.97;;;;;;;;;;4983706;28;20030;-80
2023/02/08 07:06:00;;;;;;;24.08;10.25;;;;;;;;;;4984455;28;20344;-79
2023/02/08 07:08:26;;;;;;;17.60;8.83;;;;;;;;;;4982345;28;20034;-73
2023/02/08 07:10:51;;;;;;;20.05;9.68;;;;;;;;;;4987053;28;20640;-80
2023/02/08 07:13:16;;;;;;;18.40;8.48;;;;;;;;;;4986237;28;20083;-80
2023/02/08 07:15:41;;;;;;;17.08;8.82;;;;;;;;;;4986793;28;20109;-80
2023/02/08 07:18:07;;;;;;;17.47;8.53;;;;;;;;;;4985645;28;20552;-82
2023/02/08 07:20:32;;;;;;;18.10;8.43;;;;;;;;;;4981906;28;20887;-81
2023/02/08 07:22:58;;;;;;;17.67;9.48;;;;;;;;;;4985253;28;20851;-82
2023/02/08 07:25:23;;;;;;;16.67;8.20;;;;;;;;;;4986088;28;20077;-80
2023/02/08 07:27:48;;;;;;;21.98;9.38;;;;;;;;;;4981768;28;20076;-71
2023/02/08 07:30:14;;;;;;;17.77;9.00;;;;;;;;;;4984096;28;20022;-73
2023/02/08 07:32:41;;;;;;;16.23;8.52;;;;;;;;;;4985679;28;20641;-75
2023/02/08 07:35:06;;;;;;;19.15;8.57;;;;;;;;;;4985868;28;20049;-76
2023/02/08 07:37:34;;;;;;;17.10;8.82;;;;;;;;;;4983909;28;20026;-75
2023/02/08 07:39:59;;;;;;;19.35;9.75;;;;;;;;;;4984909;28;20022;-77
2023/02/08 07:42:30;;;;;;;17.87;9.07;;;;;;;;;;4985699;28;20022;-78
2023/02/08 07:44:55;;;;;;;19.92;9.63;;;;;;;;;;4968577;28;20286;-78
2023/02/08 07:47:20;;;;;;;21.87;11.33;;;;;;;;;;4984529;28;20065;-69
2023/02/08 07:49:45;;;;;;;21.40;9.33;;;;;;;;;;4984372;28;20277;-68
2023/02/08 07:52:10;;;;;;;17.92;8.27;;;;;;;;;;4982600;28;20278;-69
2023/02/08 07:54:36;;;;;;;15.80;7.72;;;;;;;;;;4984831;28;20022;-69
2023/02/08 07:57:01;;;;;;;19.52;8.38;;;;;;;;;;4983465;28;20045;-68
2023/02/08 07:59:26;;;;;;;17.38;9.43;;;;;;;;;;4985300;28;20041;-71
2023/02/08 08:01:51;;;;;;;16.17;8.40;;;;;;;;;;4981567;28;20378;-70
2023/02/08 08:04:18;;;;;;;19.70;8.77;;;;;;;;;;4987240;28;20976;-76
2023/02/08 08:06:45;;;;;;;17.67;9.45;;;;;;;;;;4986214;28;20779;-75
2023/02/08 08:09:10;;;;;;;16.67;8.00;;;;;;;;;;4986323;28;20032;-75
2023/02/08 08:11:36;;;;;;;15.70;8.00;;;;;;;;;;4986253;28;20089;-72
2023/02/08 08:14:01;;;;;;;19.10;8.50;;;;;;;;;;4990940;28;20241;-74
2023/02/08 08:16:26;;;;;;;17.53;9.93;;;;;;;;;;4985874;28;20026;-73
2023/02/08 08:19:14;;;;;;;20.27;9.15;;;;;;;;;;4988040;28;20293;-75
2023/02/08 08:21:40;;;;;;;19.30;9.02;;;;;;;;;;4988997;28;20642;-71
2023/02/08 08:24:05;;;;;;;19.15;10.10;;;;;;;;;;4995069;28;20022;-79
2023/02/08 08:26:30;;;;;;;21.70;9.68;;;;;;;;;;4988612;28;20029;-77
2023/02/08 08:28:56;;;;;;;18.60;9.23;;;;;;;;;;4987009;28;20437;-77
2023/02/08 08:31:21;;;;;;;17.17;9.10;;;;;;;;;;4987555;28;20048;-74
2023/02/08 08:33:47;;;;;;;21.98;8.52;;;;;;;;;;4988037;28;20018;-74
2023/02/08 08:36:12;;;;;;;18.20;10.20;;;;;;;;;;4988944;28;20030;-80
2023/02/08 08:38:38;;;;;;;23.15;10.80;;;;;;;;;;4985772;28;20070;-77
2023/02/08 08:41:10;;;;;;;27.50;11.00;;;;;;;;;;4987403;28;20441;-78
2023/02/08 08:43:36;;;;;;;20.00;10.18;;;;;;;;;;4988306;28;20143;-75
2023/02/08 08:46:01;;;;;;;20.33;9.43;;;;;;;;;;4991759;28;20363;-71
2023/02/08 08:48:26;;;;;;;18.55;9.07;;;;;;;;;;4991299;28;20089;-72
2023/02/08 08:50:52;;;;;;;19.77;9.60;;;;;;;;;;4987549;28;20023;-71
2023/02/08 08:53:18;;;;;;;17.15;8.75;;;;;;;;;;4989266;28;20054;-74
2023/02/08 08:55:43;;;;;;;23.05;9.35;;;;;;;;;;4985428;28;20548;-76
2023/02/08 08:58:08;;;;;;;20.27;11.07;;;;;;;;;;4986257;28;20026;-70
2023/02/08 09:00:33;;;;;;;19.80;11.10;;;;;;;;;;4989425;28;20046;-74
2023/02/08 09:02:59;;;;;;;18.33;9.93;;;;;;;;;;4986133;28;20069;-69
2023/02/08 09:05:24;;;;;;;27.02;10.02;;;;;;;;;;4988842;28;20269;-69
2023/02/08 09:07:49;;;;;;;18.35;9.63;;;;;;;;;;4991830;28;20113;-70
2023/02/08 09:10:14;;;;;;;23.53;10.40;;;;;;;;;;4988532;28;20511;-69
2023/02/08 09:12:40;;;;;;;19.20;10.50;;;;;;;;;;4987055;28;20589;-70
2023/02/08 09:15:05;;;;;;;17.10;8.73;;;;;;;;;;4988984;28;20053;-69
2023/02/08 09:17:30;;;;;;;18.42;9.57;;;;;;;;;;4988610;28;20054;-70
2023/02/08 09:19:55;;;;;;;22.48;9.10;;;;;;;;;;4992381;28;20553;-73
2023/02/08 09:22:21;;;;;;;18.63;9.05;;;;;;;;;;4986149;28;20053;-77
2023/02/08 09:24:46;;;;;;;20.83;10.52;;;;;;;;;;4988519;28;20508;-74
2023/02/08 09:27:11;;;;;;;20.70;10.57;;;;;;;;;;4987682;28;20018;-71
2023/02/08 09:29:36;;;;;;;26.87;11.67;;;;;;;;;;4983936;28;20050;-75
2023/02/08 09:32:02;;;;;;;23.93;10.80;;;;;;;;;;4990047;28;20316;-74
2023/02/08 09:34:27;;;;;;;18.80;9.02;;;;;;;;;;4986367;28;20309;-73
2023/02/08 09:36:52;;;;;;;22.67;9.90;;;;;;;;;;4987025;28;20042;-70
2023/02/08 09:39:19;;;;;;;21.25;10.48;;;;;;;;;;4983205;28;20325;-80
2023/02/08 09:42:02;;;;;;;18.67;10.50;;;;;;;;;;4987524;28;20037;-78
2023/02/08 09:44:36;;;;;;;20.05;10.88;;;;;;;;;;4987745;28;20501;-78
2023/02/08 09:47:13;;;;;;;28.92;10.07;;;;;;;;;;4985803;28;20024;-82
2023/02/08 09:49:45;;;;;;;20.88;10.05;;;;;;;;;;5000265;28;20042;-77
2023/02/08 09:52:17;;;;;;;20.20;10.25;;;;;;;;;;4988045;28;20030;-80
2023/02/08 09:54:45;;;;;;;19.85;10.25;;;;;;;;;;4987836;28;20039;-79
2023/02/08 09:57:16;;;;;;;19.40;9.63;;;;;;;;;;4985906;28;20022;-70
2023/02/08 09:59:48;;;;;;;25.40;11.30;;;;;;;;;;4986466;28;20566;-69
2023/02/08 10:02:20;;;;;;;22.00;9.05;;;;;;;;;;4988718;28;20030;-72
2023/02/08 10:04:56;;;;;;;19.02;10.30;;;;;;;;;;4986853;28;20026;-71
2023/02/08 10:07:23;;;;;;;19.00;10.52;;;;;;;;;;4984934;28;20033;-73
2023/02/08 10:09:48;;;;;;;21.38;11.05;;;;;;;;;;4986228;28;20037;-71
2023/02/08 10:12:37;;;;;;;19.67;10.90;;;;;;;;;;4988568;28;20052;-75
2023/02/08 10:15:03;;;;;;;21.80;10.40;;;;;;;;;;4955350;28;20289;-71
2023/02/08 10:17:37;;;;;;;19.23;10.73;;;;;;;;;;4988968;28;20354;-68
2023/02/08 10:20:02;;;;;;;18.30;9.60;;;;;;;;;;4987508;28;20300;-70
2023/02/08 10:22:34;;;;;;;22.53;10.70;;;;;;;;;;4986984;28;20026;-71
2023/02/08 10:25:02;;;;;;;17.63;10.20;;;;;;;;;;5001098;28;20282;-69
2023/02/08 10:27:49;;;;;;;19.75;10.13;;;;;;;;;;4988180;28;20022;-68
2023/02/08 10:30:20;;;;;;;22.10;11.60;;;;;;;;;;4982497;28;20014;-68
2023/02/08 10:32:58;;;;;;;23.73;10.23;;;;;;;;;;4984059;28;20137;-78
2023/02/08 10:35:36;;;;;;;21.20;11.48;;;;;;;;;;4989898;28;20079;-75
2023/02/08 10:38:21;;;;;;;18.67;9.98;;;;;;;;;;4987923;28;20069;-77
2023/02/08 10:40:48;;;;;;;16.58;10.55;;;;;;;;;;4975492;28;20065;-78
2023/02/08 10:43:13;;;;;;;17.35;9.93;;;;;;;;;;4988710;28;20030;-75
2023/02/08 10:45:42;;;;;;;16.47;9.80;;;;;;;;;;4985258;28;20015;-74
2023/02/08 10:48:11;;;;;;;19.35;11.20;;;;;;;;;;4986079;28;20014;-73
2023/02/08 10:50:38;;;;;;;18.90;10.73;;;;;;;;;;4984268;28;20033;-71
2023/02/08 10:53:03;;;;;;;16.85;9.98;;;;;;;;;;4986868;28;20037;-71
2023/02/08 10:55:29;;;;;;;17.17;9.63;;;;;;;;;;4991495;28;20030;-73
2023/02/08 10:57:56;;;;;;;20.67;9.90;;;;;;;;;;4982653;28;20385;-68
2023/02/08 11:00:25;;;;;;;17.83;10.32;;;;;;;;;;4988418;28;20029;-68
2023/02/08 11:02:51;;;;;;;20.30;10.57;;;;;;;;;;4988771;28;20034;-73
2023/02/08 11:05:36;;;;;;;16.75;9.48;;;;;;;;;;4986664;28;20071;-72
2023/02/08 11:08:06;;;;;;;16.90;9.35;;;;;;;;;;4985039;28;20037;-73
2023/02/08 11:10:38;;;;;;;17.75;9.88;;;;;;;;;;4991163;28;20034;-72
2023/02/08 11:13:06;;;;;;;17.15;10.05;;;;;;;;;;5001162;28;20022;-71
2023/02/08 11:15:37;;;;;;;16.20;8.68;;;;;;;;;;4988624;28;20049;-71
2023/02/08 11:18:03;;;;;;;19.67;9.15;;;;;;;;;;4996143;28;20082;-75
2023/02/08 11:20:36;;;;;;;21.00;11.02;;;;;;;;;;4991167;28;20041;-74
2023/02/08 11:23:03;;;;;;;19.33;9.32;;;;;;;;;;4999201;28;20049;-72
2023/02/08 11:25:33;;;;;;;16.88;9.15;;;;;;;;;;4985979;28;20048;-71
2023/02/08 11:27:59;;;;;;;15.55;8.40;;;;;;;;;;4992741;28;20065;-67
2023/02/08 11:30:24;;;;;;;18.17;9.23;;;;;;;;;;4983885;28;20314;-65
2023/02/08 11:33:09;;;;;;;20.27;10.20;;;;;;;;;;4994358;28;20026;-66
2023/02/08 11:35:35;;;;;;;16.88;9.88;;;;;;;;;;4995569;28;20214;-66
2023/02/08 11:38:00;;;;;;;19.85;10.35;;;;;;;;;;4989912;28;20873;-67
2023/02/08 11:40:36;;;;;;;17.40;8.98;;;;;;;;;;4988027;28;20034;-65
2023/02/08 11:43:02;;;;;;;17.35;9.05;;;;;;;;;;4987686;28;20037;-66
2023/02/08 11:45:31;;;;;;;17.60;9.75;;;;;;;;;;4990279;28;20018;-68
2023/02/08 11:47:58;;;;;;;17.77;9.45;;;;;;;;;;4992750;28;20026;-73
2023/02/08 11:50:29;;;;;;;16.35;8.93;;;;;;;;;;4987098;28;20030;-72
2023/02/08 11:52:59;;;;;;;19.42;9.10;;;;;;;;;;4977339;28;20482;-74
2023/02/08 11:55:26;;;;;;;16.58;9.23;;;;;;;;;;4979112;28;20113;-72
2023/02/08 11:57:59;;;;;;;19.02;8.88;;;;;;;;;;4980610;28;20382;-71
2023/02/08 12:00:29;;;;;;;15.25;8.48;;;;;;;;;;4985058;28;20019;-73
2023/02/08 12:02:58;;;;;;;18.98;9.15;;;;;;;;;;4982920;28;20478;-75
2023/02/08 12:05:31;;;;;;;15.60;7.97;;;;;;;;;;4981147;28;20022;-80
2023/02/08 12:08:16;;;;;;;15.30;8.85;;;;;;;;;;4997702;28;20030;-77
2023/02/08 12:10:41;;;;;;;13.35;8.27;;;;;;;;;;4984861;28;20505;-80
2023/02/08 12:13:16;;;;;;;18.53;9.40;;;;;;;;;;4985021;28;20084;-75
2023/02/08 12:15:53;;;;;;;19.85;8.65;;;;;;;;;;4987673;28;20031;-77
2023/02/08 12:18:26;;;;;;;16.33;9.50;;;;;;;;;;4979786;28;20030;-79
2023/02/08 12:21:21;;;;;;;19.42;8.77;;;;;;;;;;4989266;28;20018;-72
2023/02/08 12:23:49;;;;;;;15.68;8.65;;;;;;;;;;4978641;28;20097;-74
2023/02/08 12:26:36;;;;;;;14.25;7.75;;;;;;;;;;4989035;28;20049;-75
2023/02/08 12:29:09;;;;;;;14.93;9.23;;;;;;;;;;4988614;28;20022;-77
2023/02/08 12:31:53;;;;;;;13.20;7.88;;;;;;;;;;4991022;28;20022;-79
2023/02/08 12:34:27;;;;;;;13.13;7.68;;;;;;;;;;4988371;28;20056;-76
2023/02/08 12:42:41;;;;;;;16.75;8.00;;;;;;;;;;4989693;28;20604;-70
2023/02/08 12:45:25;;;;;;;15.27;6.95;;;;;;;;;;4987421;28;20023;-71
2023/02/08 12:47:58;;;;;;;13.30;7.20;;;;;;;;;;4987398;28;20709;-69
2023/02/08 12:50:26;;;;;;;11.77;6.55;;;;;;;;;;4989294;28;20113;-71
2023/02/08 12:53:14;;;;;;;15.77;7.45;;;;;;;;;;4985311;28;20022;-71
2023/02/08 12:55:41;;;;;;;13.98;6.68;;;;;;;;;;4978242;28;20074;-68
2023/02/08 12:58:25;;;;;;;10.93;6.45;;;;;;;;;;4984383;28;20385;-72
2023/02/08 13:00:51;;;;;;;13.48;6.35;;;;;;;;;;4986443;28;20018;-75
2023/02/08 13:03:30;;;;;;;13.90;7.50;;;;;;;;;;4988514;28;20026;-75
2023/02/08 13:06:16;;;;;;;14.48;6.30;;;;;;;;;;4985622;28;20057;-78
2023/02/08 13:08:54;;;;;;;12.38;6.40;;;;;;;;;;4988703;28;20113;-75
2023/02/08 13:11:28;;;;;;;12.70;6.70;;;;;;;;;;4993063;28;20014;-75
2023/02/08 13:13:57;;;;;;;13.77;6.65;;;;;;;;;;5006744;28;20018;-76
2023/02/08 13:16:28;;;;;;;14.93;6.57;;;;;;;;;;4985865;28;20022;-81
2023/02/08 13:18:53;;;;;;;13.68;7.18;;;;;;;;;;4987923;28;20049;-76
2023/02/08 13:21:21;;;;;;;11.03;5.80;;;;;;;;;;4993123;28;20027;-77
2023/02/08 13:23:47;;;;;;;13.18;6.68;;;;;;;;;;4988008;28;20042;-78
2023/02/08 13:26:31;;;;;;;11.60;5.78;;;;;;;;;;5003031;28;20457;-79
2023/02/08 13:28:57;;;;;;;11.77;6.45;;;;;;;;;;4988058;28;20034;-78
2023/02/08 13:31:40;;;;;;;10.88;6.30;;;;;;;;;;4987146;28;20069;-76
2023/02/08 13:34:11;;;;;;;15.52;6.13;;;;;;;;;;4989326;28;20113;-78
2023/02/08 13:36:38;;;;;;;11.02;5.57;;;;;;;;;;4988159;28;20027;-79
2023/02/08 13:39:05;;;;;;;12.63;5.85;;;;;;;;;;4986626;28;20138;-76
2023/02/08 13:41:31;;;;;;;11.23;6.13;;;;;;;;;;4986936;28;20098;-74
2023/02/08 13:44:17;;;;;;;12.13;6.13;;;;;;;;;;4997455;28;20034;-75
2023/02/08 13:46:46;;;;;;;12.98;6.03;;;;;;;;;;4985163;28;20236;-72
2023/02/08 13:49:31;;;;;;;9.38;6.20;;;;;;;;;;4989392;28;20508;-80
2023/02/08 13:51:57;;;;;;;10.52;5.72;;;;;;;;;;4974991;28;20030;-72
2023/02/08 13:54:22;;;;;;;16.95;6.90;;;;;;;;;;4993004;28;20076;-74
2023/02/08 13:56:49;;;;;;;13.70;5.80;;;;;;;;;;4985355;28;20030;-75
2023/02/08 13:59:26;;;;;;;10.30;5.35;;;;;;;;;;4987979;28;20038;-76
2023/02/08 14:02:10;;;;;;;12.45;6.05;;;;;;;;;;4988564;28;20022;-75
2023/02/08 14:04:36;;;;;;;12.57;5.68;;;;;;;;;;4987959;28;20096;-77
2023/02/08 14:07:10;;;;;;;13.52;6.30;;;;;;;;;;4989542;28;20112;-81
2023/02/08 14:09:42;;;;;;;11.25;5.53;;;;;;;;;;4986614;28;20029;-75
2023/02/08 14:12:11;;;;;;;12.40;6.00;;;;;;;;;;4989481;28;20052;-70
2023/02/08 14:14:40;;;;;;;11.75;5.30;;;;;;;;;;4998818;28;20042;-81
2023/02/08 14:17:17;;;;;;;11.63;6.13;;;;;;;;;;4991856;28;20110;-77
2023/02/08 14:19:45;;;;;;;9.77;5.30;;;;;;;;;;4990867;28;20176;-75
2023/02/08 14:22:10;;;;;;;11.10;5.40;;;;;;;;;;4990283;28;20019;-75
2023/02/08 14:24:47;;;;;;;10.00;5.30;;;;;;;;;;4987819;28;20033;-77
2023/02/08 14:27:19;;;;;;;11.68;5.38;;;;;;;;;;4991165;28;20022;-81
2023/02/08 14:29:54;;;;;;;12.48;5.78;;;;;;;;;;4988450;28;20087;-69
2023/02/08 14:32:23;;;;;;;13.02;6.50;;;;;;;;;;4987696;28;20040;-72
2023/02/08 14:34:57;;;;;;;9.25;5.13;;;;;;;;;;4985984;28;20049;-75
2023/02/08 14:37:22;;;;;;;14.00;6.28;;;;;;;;;;4984633;28;20037;-76
2023/02/08 14:39:51;;;;;;;11.03;6.27;;;;;;;;;;4984942;28;20034;-76
2023/02/08 14:42:36;;;;;;;11.52;5.63;;;;;;;;;;4986706;28;20343;-77
2023/02/08 14:45:03;;;;;;;12.65;6.32;;;;;;;;;;4987045;28;20030;-73
2023/02/08 14:47:30;;;;;;;16.02;6.60;;;;;;;;;;4998184;28;20054;-68